Time;durP1;ratioP1;P1;durP2;ratioP2;P2;SDS_P1;SDS_P2;PMS_P1;PMS_P2;Temp;Humidity;BMP_temperature;BMP_pressure;BME280_temperature;BME280_humidity;BME280_pressure;Samples;Min_cycle;Max_cycle;Signal;HPM_P1;HPM_P2
2022/08/13 00:00:17;;;;;;;816.43;757.53;;;;;;;25.46;39.39;101480.81;694147;28;45229;-58
2022/08/13 00:00:38;;;;;;;810.33;751.63;;;;;;;25.43;39.45;101484.91;693017;28;16196;-56
2022/08/13 00:00:59;;;;;;;824.45;765.33;;;;;;;25.43;39.78;101484.91;692723;28;22398;-57
2022/08/13 00:01:24;;;;;;;826.95;767.75;;;;;;;25.43;39.56;101489.63;692389;28;21389;-58
2022/08/13 00:01:45;;;;;;;830.92;771.53;;;;;;;25.41;39.66;101481.56;688672;28;113573;-58
2022/08/13 00:02:09;;;;;;;834.47;775.05;;;;;;;25.41;39.29;101477.97;692247;28;22371;-58
2022/08/13 00:02:31;;;;;;;823.65;764.55;;;;;;;25.37;39.77;101477.66;690165;28;92291;-57
2022/08/13 00:02:53;;;;;;;816.67;757.67;;;;;;;25.39;39.43;101491.22;692126;28;46327;-55
2022/08/13 00:03:14;;;;;;;816.03;757.10;;;;;;;25.38;39.46;101484.84;692275;28;45245;-57
2022/08/13 00:03:36;;;;;;;824.00;764.90;;;;;;;25.36;39.60;101482.34;695941;28;23532;-56
2022/08/13 00:03:57;;;;;;;808.15;749.45;;;;;;;25.35;39.76;101482.59;697633;28;44070;-57
2022/08/13 00:04:21;;;;;;;829.53;770.28;;;;;;;25.34;39.71;101483.69;698372;28;23443;-58
2022/08/13 00:04:46;;;;;;;831.58;772.28;;;;;;;25.33;39.73;101484.81;696102;28;92643;-56
2022/08/13 00:05:09;;;;;;;838.70;779.20;;;;;;;25.33;39.55;101491.16;694155;28;113567;-57
2022/08/13 00:05:40;;;;;;;849.22;789.33;;;;;;;25.32;39.86;101485.88;693090;28;96903;-57
2022/08/13 00:06:08;;;;;;;843.80;784.05;;;;;;;25.31;39.97;101487.84;695585;28;22520;-58
2022/08/13 00:07:02;;;;;;;844.58;784.85;;;;;;;25.26;39.99;101484.13;691873;28;136428;-57
2022/08/13 00:07:24;;;;;;;838.65;778.95;;;;;;;25.28;39.69;101487.47;689526;28;180301;-56
2022/08/13 00:07:45;;;;;;;832.20;772.88;;;;;;;25.28;40.12;101490.22;695042;28;44414;-58
2022/08/13 00:08:09;;;;;;;828.08;768.80;;;;;;;25.27;40.09;101485.81;695587;28;22384;-55
2022/08/13 00:08:33;;;;;;;820.40;761.40;;;;;;;25.25;39.98;101482.44;693368;28;92219;-57
2022/08/13 00:08:55;;;;;;;800.13;741.65;;;;;;;25.24;39.71;101483.56;693255;28;93428;-58
2022/08/13 00:09:18;;;;;;;798.88;740.45;;;;;;;25.25;40.09;101487.97;695000;28;46537;-58
2022/08/13 00:09:44;;;;;;;811.45;752.72;;;;;;;25.24;40.22;101480.78;693412;28;69411;-58
2022/08/13 00:10:08;;;;;;;825.92;766.70;;;;;;;25.23;40.11;101491.00;691410;28;138420;-54
2022/08/13 00:10:30;;;;;;;835.75;776.30;;;;;;;25.22;40.02;101489.34;693458;28;92246;-54
2022/08/13 00:10:52;;;;;;;841.22;781.60;;;;;;;25.22;40.22;101481.06;694874;28;45338;-51
2022/08/13 00:12:56;;;;;;;836.88;777.35;;;;;;;25.25;39.79;101493.50;691802;28;137656;-53
2022/08/13 00:13:19;;;;;;;815.67;756.80;;;;;;;25.28;39.90;101487.47;691834;28;135995;-53
2022/08/13 00:13:43;;;;;;;833.03;773.65;;;;;;;25.28;40.20;101490.22;694951;28;47064;-54
2022/08/13 00:14:07;;;;;;;841.92;782.35;;;;;;;25.29;39.81;101489.16;692482;28;113258;-54
2022/08/13 00:14:31;;;;;;;841.53;781.92;;;;;;;25.28;39.82;101491.13;693294;28;92153;-53
2022/08/13 00:14:52;;;;;;;836.00;776.50;;;;;;;25.27;39.81;101486.63;693205;28;92239;-53
2022/08/13 00:15:18;;;;;;;840.20;780.50;;;;;;;25.30;39.92;101488.09;695492;28;23458;-54
2022/08/13 00:15:43;;;;;;;817.42;758.38;;;;;;;25.31;39.65;101492.50;691675;28;136402;-54
2022/08/13 00:16:09;;;;;;;825.63;766.30;;;;;;;25.31;39.63;101486.97;691757;28;137536;-54
2022/08/13 00:16:32;;;;;;;819.75;760.60;;;;;;;25.28;39.63;101485.59;693932;28;69340;-53
2022/08/13 00:16:54;;;;;;;826.65;767.20;;;;;;;25.28;39.63;101495.75;666124;28;92265;-53
2022/08/13 00:17:19;;;;;;;836.72;776.97;;;;;;;25.28;39.59;101493.00;695451;28;21491;-56
2022/08/13 00:17:41;;;;;;;841.90;782.15;;;;;;;25.29;39.51;101490.00;685886;28;136723;-58
2022/08/13 00:18:05;;;;;;;837.13;777.53;;;;;;;25.30;39.36;101485.31;689174;28;46559;-53
2022/08/13 00:18:30;;;;;;;832.17;772.78;;;;;;;25.30;39.78;101479.78;687451;28;92250;-52
2022/08/13 00:18:52;;;;;;;844.50;784.75;;;;;;;25.29;39.72;101491.94;686607;28;92259;-59
2022/08/13 00:19:13;;;;;;;831.85;772.33;;;;;;;25.30;39.74;101486.16;685750;28;69422;-56
2022/08/13 00:19:38;;;;;;;821.88;762.67;;;;;;;25.27;39.58;101483.88;690201;28;22507;-54
2022/08/13 00:20:04;;;;;;;844.65;784.80;;;;;;;25.29;39.36;101483.66;689885;28;115131;-55
2022/08/13 00:20:30;;;;;;;849.90;789.83;;;;;;;25.32;39.40;101485.88;691684;28;138270;-54
2022/08/13 00:20:57;;;;;;;834.60;775.08;;;;;;;25.31;39.47;101492.50;690995;28;136159;-56
2022/08/13 00:21:18;;;;;;;824.90;765.63;;;;;;;25.32;39.26;101483.13;690591;28;139289;-52
2022/08/13 00:21:42;;;;;;;822.35;763.15;;;;;;;25.31;39.58;101489.75;694493;28;23276;-52
2022/08/13 00:22:04;;;;;;;827.58;768.17;;;;;;;25.31;39.29;101481.44;690517;28;92253;-56
2022/08/13 00:22:26;;;;;;;819.40;760.33;;;;;;;25.30;39.54;101494.44;689363;28;38333;-57
2022/08/13 00:22:48;;;;;;;822.08;762.88;;;;;;;25.29;39.30;101487.22;690174;28;45284;-58
2022/08/13 00:23:13;;;;;;;826.08;766.70;;;;;;;25.28;39.52;101491.13;691681;28;44342;-58
2022/08/13 00:23:35;;;;;;;812.42;753.53;;;;;;;25.27;39.46;101492.16;686108;28;137949;-56
2022/08/13 00:23:57;;;;;;;819.13;760.00;;;;;;;25.26;39.30;101484.94;692258;28;22439;-51
2022/08/13 00:24:21;;;;;;;827.00;767.65;;;;;;;25.26;39.47;101484.13;694079;28;25170;-52
2022/08/13 00:24:45;;;;;;;812.42;753.53;;;;;;;25.24;39.74;101486.31;693157;28;90725;-54
2022/08/13 00:25:11;;;;;;;818.10;758.97;;;;;;;25.24;39.71;101480.78;691449;28;137823;-59
2022/08/13 00:25:32;;;;;;;812.45;753.55;;;;;;;25.27;39.43;101491.34;693288;28;92430;-55
2022/08/13 00:25:57;;;;;;;818.92;759.80;;;;;;;25.25;39.34;101488.81;695495;28;22412;-53
2022/08/13 00:26:22;;;;;;;810.75;751.85;;;;;;;25.26;39.67;101486.88;692529;28;113691;-55
2022/08/13 00:26:44;;;;;;;816.85;757.78;;;;;;;25.23;39.35;101479.94;691750;28;92649;-55
2022/08/13 00:27:10;;;;;;;819.03;759.83;;;;;;;25.25;39.68;101487.97;694160;28;46400;-56
2022/08/13 00:27:32;;;;;;;816.90;757.90;;;;;;;25.25;39.47;101479.69;691657;28;137762;-54
2022/08/13 00:27:57;;;;;;;830.33;770.85;;;;;;;25.25;39.45;101485.22;696213;28;1198;-54
2022/08/13 00:28:26;;;;;;;825.75;766.47;;;;;;;25.24;39.44;101480.78;692357;28;115816;-52
2022/08/13 00:28:49;;;;;;;826.42;767.10;;;;;;;25.25;39.23;101476.91;691516;28;136105;-55
2022/08/13 00:29:10;;;;;;;826.50;767.20;;;;;;;25.24;39.87;101480.78;694789;28;46233;-55
2022/08/13 00:29:31;;;;;;;821.72;762.55;;;;;;;25.24;39.44;101476.09;694880;28;45286;-56
2022/08/13 00:29:54;;;;;;;816.10;757.10;;;;;;;25.25;39.28;101477.78;695374;28;23329;-51
2022/08/13 00:30:17;;;;;;;821.53;762.42;;;;;;;25.25;39.50;101487.97;694740;28;44382;-53
2022/08/13 00:30:39;;;;;;;811.20;752.30;;;;;;;25.25;39.68;101482.44;693202;28;93224;-54
2022/08/13 00:31:00;;;;;;;814.35;755.40;;;;;;;25.27;39.28;101483.03;695555;28;22383;-53
2022/08/13 00:31:21;;;;;;;814.35;755.45;;;;;;;25.26;39.32;101484.13;695719;28;21603;-56
2022/08/13 00:31:46;;;;;;;803.40;744.78;;;;;;;25.24;39.20;101480.78;693993;28;46352;-55
2022/08/13 00:32:08;;;;;;;818.10;759.00;;;;;;;25.26;39.43;101476.66;693211;28;92115;-56
2022/08/13 00:32:29;;;;;;;812.67;753.78;;;;;;;25.20;39.50;101466.63;694897;28;45276;-55
2022/08/13 00:32:51;;;;;;;818.08;759.00;;;;;;;25.25;39.39;101476.91;694625;28;44316;-54
2022/08/13 00:33:15;;;;;;;834.15;774.58;;;;;;;25.23;39.66;101479.94;695696;28;23458;-54
2022/08/13 00:33:38;;;;;;;820.72;761.63;;;;;;;25.23;39.38;101479.09;692443;28;114981;-56
2022/08/13 00:34:00;;;;;;;824.60;765.35;;;;;;;25.23;39.38;101479.94;694086;28;44266;-55
2022/08/13 00:34:22;;;;;;;830.35;770.90;;;;;;;25.21;39.39;101473.84;694026;28;69411;-56
2022/08/13 00:34:43;;;;;;;840.15;780.45;;;;;;;25.21;39.63;101476.59;695563;28;23266;-52
2022/08/13 00:35:05;;;;;;;836.47;776.92;;;;;;;25.23;39.44;101479.09;695439;28;23489;-54
2022/08/13 00:35:28;;;;;;;828.13;768.83;;;;;;;25.21;39.37;101476.59;694629;28;46286;-56
2022/08/13 00:35:50;;;;;;;819.40;760.35;;;;;;;25.16;39.65;101471.84;696740;28;67470;-55
2022/08/13 00:36:12;;;;;;;816.63;757.65;;;;;;;25.22;39.42;101480.19;694954;28;69218;-54
2022/08/13 00:36:34;;;;;;;819.08;760.03;;;;;;;25.20;39.57;101474.91;697960;28;22358;-57
2022/08/13 00:36:57;;;;;;;819.40;760.25;;;;;;;25.21;39.38;101473.84;695440;28;70320;-57
2022/08/13 00:37:18;;;;;;;819.15;760.00;;;;;;;25.22;39.61;101472.75;695216;28;43058;-58
2022/08/13 00:37:41;;;;;;;826.08;766.78;;;;;;;25.23;39.68;101473.59;696620;28;875;-58
2022/08/13 00:38:05;;;;;;;833.42;773.88;;;;;;;25.21;39.77;101470.25;693931;28;69267;-55
2022/08/13 00:38:31;;;;;;;823.33;764.13;;;;;;;25.23;39.69;101471.66;694222;28;67488;-55
2022/08/13 00:38:54;;;;;;;823.17;763.97;;;;;;;25.23;39.29;101471.66;691537;28;137946;-57
2022/08/13 00:39:16;;;;;;;820.63;761.55;;;;;;;25.25;39.60;101471.38;693905;28;69427;-56
2022/08/13 00:39:37;;;;;;;826.80;767.55;;;;;;;25.23;39.61;101468.88;694905;28;46781;-55
2022/08/13 00:39:58;;;;;;;838.15;778.50;;;;;;;25.23;39.48;101468.88;694537;28;46145;-56
2022/08/13 00:40:21;;;;;;;831.50;772.08;;;;;;;25.24;39.40;101472.50;695215;28;23378;-58
2022/08/13 00:40:44;;;;;;;835.65;776.13;;;;;;;25.24;39.67;101469.72;694777;28;47451;-52
2022/08/13 00:41:06;;;;;;;826.42;767.17;;;;;;;25.23;39.68;101470.81;690652;28;67494;-56
2022/08/13 00:41:37;;;;;;;825.10;765.90;;;;;;;25.23;39.33;101471.66;691944;28;46331;-52
2022/08/13 00:41:59;;;;;;;822.25;763.13;;;;;;;25.23;39.69;101479.09;687862;28;137398;-54
2022/08/13 00:42:21;;;;;;;828.17;768.80;;;;;;;25.22;39.57;101464.47;692016;28;46240;-51
2022/08/13 00:42:43;;;;;;;819.67;760.55;;;;;;;25.19;39.74;101465.81;691057;28;69447;-55
2022/08/13 00:43:04;;;;;;;807.00;748.22;;;;;;;25.22;39.46;101469.13;694858;28;21527;-54
2022/08/13 00:43:27;;;;;;;822.85;763.65;;;;;;;25.19;39.74;101468.56;695603;28;22375;-53
2022/08/13 00:43:49;;;;;;;825.85;766.55;;;;;;;25.19;39.70;101467.75;693202;28;90292;-57
2022/08/13 00:44:17;;;;;;;814.80;755.80;;;;;;;25.17;39.83;101464.38;696266;28;861;-55
2022/08/13 00:44:39;;;;;;;821.80;762.63;;;;;;;25.17;39.71;101470.75;691434;28;136478;-53
2022/08/13 00:45:01;;;;;;;810.53;751.67;;;;;;;25.17;39.76;101469.91;694766;28;44561;-55
2022/08/13 00:45:23;;;;;;;806.75;747.92;;;;;;;25.15;39.80;101470.16;694638;28;45252;-57
2022/08/13 00:45:44;;;;;;;827.42;768.10;;;;;;;25.14;39.78;101473.19;694720;28;45214;-56
2022/08/13 00:46:05;;;;;;;824.15;764.95;;;;;;;25.14;39.86;101467.66;695625;28;22260;-54
2022/08/13 00:46:27;;;;;;;816.08;757.05;;;;;;;25.14;39.92;101467.66;695540;28;21513;-54
2022/08/13 00:48:41;;;;;;;825.60;766.40;;;;;;;25.11;39.87;101469.03;693207;28;69381;-57
2022/08/13 00:48:50;;;;;;;830.58;771.28;;;;;;;25.08;39.65;101468.69;691458;28;135977;-57
2022/08/13 00:49:13;;;;;;;834.00;774.60;;;;;;;25.07;39.81;101467.84;694789;28;46390;-54
2022/08/13 00:49:35;;;;;;;829.70;770.35;;;;;;;25.08;40.07;101469.53;694737;28;44376;-53
2022/08/13 00:49:56;;;;;;;830.33;770.92;;;;;;;25.08;40.01;101468.69;694835;28;46692;-56
2022/08/13 00:50:18;;;;;;;829.33;769.95;;;;;;;25.10;40.05;101472.03;692632;28;22971;-54
2022/08/13 00:50:40;;;;;;;836.37;776.87;;;;;;;25.11;40.03;101471.78;691117;28;69463;-56
2022/08/13 00:51:01;;;;;;;840.35;780.72;;;;;;;25.13;39.71;101463.25;691798;28;46352;-55
2022/08/13 00:51:24;;;;;;;830.35;771.03;;;;;;;25.14;39.97;101462.13;692834;28;22386;-56
2022/08/13 00:51:46;;;;;;;830.72;771.38;;;;;;;25.14;39.82;101467.66;690038;28;69231;-56
2022/08/13 00:52:10;;;;;;;824.03;764.83;;;;;;;25.15;39.92;101461.03;692839;28;44380;-55
2022/08/13 00:52:40;;;;;;;825.47;766.33;;;;;;;25.16;39.68;101463.56;693337;28;90773;-54
2022/08/13 00:53:02;;;;;;;823.85;764.65;;;;;;;25.15;39.74;101461.03;694252;28;60947;-54
2022/08/13 00:53:25;;;;;;;816.53;757.60;;;;;;;25.17;39.49;101469.91;694928;28;42328;-56
2022/08/13 00:53:46;;;;;;;826.38;767.17;;;;;;;25.18;39.87;101460.53;693684;28;65348;-55
2022/08/13 00:54:11;;;;;;;823.22;764.10;;;;;;;25.18;39.81;101466.88;695401;28;22373;-57
2022/08/13 00:54:34;;;;;;;826.85;767.67;;;;;;;25.16;40.17;101462.72;691552;28;138022;-53
2022/08/13 00:54:59;;;;;;;824.53;765.30;;;;;;;25.14;40.05;101460.22;693508;28;67498;-54
2022/08/13 00:55:21;;;;;;;823.80;764.60;;;;;;;25.12;40.00;101459.63;692173;28;115885;-54
2022/08/13 00:55:42;;;;;;;830.90;771.60;;;;;;;25.13;39.65;101460.47;694622;28;46589;-55
2022/08/13 00:56:05;;;;;;;826.65;767.45;;;;;;;25.11;40.11;101457.97;695553;28;22375;-55
2022/08/13 00:56:34;;;;;;;825.97;766.83;;;;;;;25.12;39.87;101464.31;694075;28;69603;-53
2022/08/13 00:56:57;;;;;;;823.92;764.63;;;;;;;25.10;40.15;101456.28;690163;28;137854;-54
2022/08/13 00:57:18;;;;;;;822.78;763.53;;;;;;;25.09;40.01;101459.31;694577;28;46336;-55
2022/08/13 00:57:39;;;;;;;836.00;776.50;;;;;;;25.09;40.18;101460.13;695598;28;22405;-53
2022/08/13 00:58:02;;;;;;;830.35;771.05;;;;;;;25.07;40.10;101459.56;695436;28;23433;-55
2022/08/13 00:58:26;;;;;;;825.10;765.97;;;;;;;25.07;40.29;101458.75;694147;28;67478;-56
2022/08/13 00:58:47;;;;;;;818.85;759.88;;;;;;;25.06;39.99;101466.19;693047;28;90342;-53
2022/08/13 00:59:13;;;;;;;826.50;767.25;;;;;;;25.02;40.23;101459.50;694676;28;44352;-57
2022/08/13 00:59:35;;;;;;;824.05;764.88;;;;;;;25.02;40.52;101456.75;692471;28;113374;-54
2022/08/13 00:59:57;;;;;;;828.47;769.17;;;;;;;25.00;40.28;101456.19;694605;28;44376;-56
2022/08/13 01:00:22;;;;;;;827.33;768.08;;;;;;;24.98;40.53;101466.63;694861;28;46267;-56
2022/08/13 01:00:46;;;;;;;826.72;767.50;;;;;;;24.96;40.42;101458.59;692402;28;113367;-56
2022/08/13 01:01:07;;;;;;;829.47;770.17;;;;;;;24.94;40.46;101457.19;693139;28;90010;-55
2022/08/13 01:01:30;;;;;;;830.17;770.88;;;;;;;24.93;40.50;101461.88;695630;28;22410;-59
2022/08/13 01:01:51;;;;;;;831.58;772.17;;;;;;;24.90;40.72;101461.56;693132;28;68321;-59
2022/08/13 01:02:13;;;;;;;834.70;775.30;;;;;;;24.89;40.87;101459.88;695363;28;21674;-59
2022/08/13 01:02:34;;;;;;;821.47;762.35;;;;;;;24.89;40.62;101463.50;694830;28;46270;-59
2022/08/13 01:02:58;;;;;;;819.78;760.67;;;;;;;24.86;41.09;101457.63;694968;28;21497;-59
2022/08/13 01:03:20;;;;;;;831.45;772.10;;;;;;;24.86;40.96;101454.84;693084;28;90702;-59
2022/08/13 01:03:42;;;;;;;834.75;775.35;;;;;;;24.85;40.49;101462.31;694749;28;44365;-60
2022/08/13 01:04:04;;;;;;;830.63;771.28;;;;;;;24.83;40.71;101465.34;694489;28;44395;-60
2022/08/13 01:04:25;;;;;;;820.70;761.58;;;;;;;24.82;40.71;101458.13;694266;28;45239;-60
2022/08/13 01:04:48;;;;;;;810.92;752.10;;;;;;;24.80;40.71;101454.78;695571;28;21339;-59
2022/08/13 01:05:09;;;;;;;799.95;741.53;;;;;;;24.79;40.81;101455.88;693765;28;69425;-60
2022/08/13 01:05:34;;;;;;;810.63;751.83;;;;;;;24.77;41.18;101460.00;695554;28;21344;-61
2022/08/13 01:05:59;;;;;;;812.28;753.17;;;;;;;24.76;40.95;101459.16;688667;28;116074;-60
2022/08/13 01:06:23;;;;;;;817.13;758.00;;;;;;;24.74;41.28;101457.75;687805;28;70543;-56
2022/08/13 01:06:46;;;;;;;821.53;762.40;;;;;;;24.73;41.22;101451.38;686298;28;92331;-54
2022/08/13 01:07:07;;;;;;;805.75;746.97;;;;;;;24.74;41.32;101461.34;687819;28;69282;-54
2022/08/13 01:07:30;;;;;;;821.30;762.17;;;;;;;24.73;40.95;101456.91;689924;28;22287;-52
2022/08/13 01:07:52;;;;;;;810.97;752.22;;;;;;;24.71;41.06;101453.56;690032;28;67506;-54
2022/08/13 01:08:16;;;;;;;823.22;764.03;;;;;;;24.70;41.25;101456.56;693196;28;44358;-54
2022/08/13 01:08:40;;;;;;;823.42;764.28;;;;;;;24.71;41.12;101464.63;693173;28;92085;-53
2022/08/13 01:09:02;;;;;;;821.00;761.88;;;;;;;24.70;41.32;101451.06;693068;28;91791;-54
2022/08/13 01:09:28;;;;;;;837.80;778.22;;;;;;;24.70;41.16;101451.06;694893;28;46335;-55
2022/08/13 01:09:51;;;;;;;824.72;765.50;;;;;;;24.69;41.45;101458.50;691359;28;138107;-53
2022/08/13 01:10:13;;;;;;;831.00;771.50;;;;;;;24.68;41.18;101450.47;692109;28;69265;-52
2022/08/13 01:10:36;;;;;;;825.53;766.22;;;;;;;24.69;41.44;101455.75;691821;28;45212;-56
2022/08/13 01:11:02;;;;;;;831.33;771.90;;;;;;;24.69;41.17;101450.22;691236;28;67474;-55
2022/08/13 01:11:26;;;;;;;841.92;782.22;;;;;;;24.67;41.46;101454.31;690522;28;136626;-53
2022/08/13 01:11:49;;;;;;;845.45;785.65;;;;;;;24.67;41.14;101448.81;692396;28;67593;-54
2022/08/13 01:12:11;;;;;;;850.42;790.53;;;;;;;24.66;41.50;101449.91;693712;28;69523;-54
2022/08/13 01:12:33;;;;;;;852.38;792.47;;;;;;;24.62;41.81;101452.31;695366;28;21325;-54
2022/08/13 01:12:56;;;;;;;851.97;792.00;;;;;;;24.65;41.43;101451.81;693556;28;69495;-54
2022/08/13 01:13:19;;;;;;;851.35;791.38;;;;;;;24.66;41.54;101452.69;693983;28;69361;-55
2022/08/13 01:13:42;;;;;;;854.22;794.28;;;;;;;24.65;41.64;101451.81;693933;28;69419;-55
2022/08/13 01:14:05;;;;;;;847.65;787.83;;;;;;;24.65;41.53;101460.09;693885;28;67486;-56
2022/08/13 01:14:32;;;;;;;842.90;783.25;;;;;;;24.64;41.60;101462.03;693949;28;69508;-51
2022/08/13 01:14:56;;;;;;;867.47;807.08;;;;;;;24.63;41.42;101456.78;691488;28;136364;-55
2022/08/13 01:15:18;;;;;;;865.30;804.97;;;;;;;24.61;41.26;101445.16;689655;28;90707;-54
2022/08/13 01:15:41;;;;;;;865.97;805.72;;;;;;;24.62;41.42;101452.31;691814;28;44349;-52
2022/08/13 01:16:04;;;;;;;897.80;836.47;;;;;;;24.62;41.34;101455.09;690992;28;69506;-51
2022/08/13 01:16:28;;;;;;;890.13;829.08;;;;;;;24.62;41.53;101460.59;687597;28;90346;-56
2022/08/13 01:16:52;;;;;;;897.72;836.47;;;;;;;24.59;41.60;101448.16;687094;28;78035;-57
2022/08/13 01:17:13;;;;;;;913.95;852.05;;;;;;;24.61;41.76;101445.97;689109;28;90765;-57
2022/08/13 01:17:35;;;;;;;864.42;804.13;;;;;;;24.61;41.57;101450.66;692920;28;22277;-54
2022/08/13 01:17:58;;;;;;;851.85;791.95;;;;;;;24.61;41.67;101456.19;694012;28;46310;-52
2022/08/13 01:18:21;;;;;;;846.70;787.00;;;;;;;24.60;41.57;101452.56;694096;28;69390;-56
2022/08/13 01:18:44;;;;;;;871.72;811.25;;;;;;;24.60;41.54;101449.81;693932;28;67473;-56
2022/08/13 01:19:09;;;;;;;871.17;810.67;;;;;;;24.59;41.42;101448.16;693715;28;69423;-58
2022/08/13 01:19:34;;;;;;;900.58;839.22;;;;;;;24.59;41.66;101452.84;692293;28;113679;-56
2022/08/13 01:19:56;;;;;;;902.95;841.53;;;;;;;24.59;41.52;101450.94;692201;28;114939;-54
2022/08/13 01:20:21;;;;;;;883.05;822.25;;;;;;;24.61;41.16;101456.19;694706;28;47200;-54
2022/08/13 01:20:46;;;;;;;903.90;842.45;;;;;;;24.60;41.51;101449.00;692273;28;113665;-52
2022/08/13 01:21:09;;;;;;;858.85;798.67;;;;;;;24.57;41.42;101455.84;693121;28;92292;-53
2022/08/13 01:21:32;;;;;;;871.47;810.97;;;;;;;24.56;41.31;101448.63;692577;28;86720;-54
2022/08/13 01:21:53;;;;;;;875.88;815.28;;;;;;;24.55;41.41;101457.19;692931;28;69424;-56
2022/08/13 01:22:16;;;;;;;884.53;823.63;;;;;;;24.52;41.35;101457.69;695580;28;21537;-55
2022/08/13 01:22:37;;;;;;;878.92;818.22;;;;;;;24.52;41.19;101453.00;694764;28;44163;-55
2022/08/13 01:22:58;;;;;;;894.33;833.10;;;;;;;24.46;41.54;101449.31;694545;28;45261;-50
2022/08/13 01:23:20;;;;;;;883.78;822.85;;;;;;;24.46;41.34;101449.31;695578;28;23431;-53
2022/08/13 01:23:45;;;;;;;872.80;812.28;;;;;;;24.45;41.62;101453.16;694770;28;44176;-54
2022/08/13 01:24:10;;;;;;;878.92;818.13;;;;;;;24.47;41.71;101450.16;692405;28;113957;-53
2022/08/13 01:24:31;;;;;;;876.22;815.58;;;;;;;24.47;41.29;101452.91;692335;28;115190;-52
2022/08/13 01:24:53;;;;;;;894.03;832.83;;;;;;;24.47;41.50;101448.22;694504;28;46377;-55
2022/08/13 01:25:14;;;;;;;924.60;862.42;;;;;;;24.49;41.35;101447.97;695202;28;21344;-53
2022/08/13 01:25:38;;;;;;;901.60;840.17;;;;;;;24.46;41.66;101452.06;694640;28;46341;-54
2022/08/13 01:25:59;;;;;;;863.88;803.55;;;;;;;24.46;41.56;101448.47;693108;28;90944;-52
2022/08/13 01:26:21;;;;;;;847.92;788.13;;;;;;;24.46;41.71;101452.06;695618;28;23268;-52
2022/08/13 01:26:43;;;;;;;862.70;802.40;;;;;;;24.45;41.60;101446.78;693723;28;45278;-54
2022/08/13 01:27:09;;;;;;;879.30;818.38;;;;;;;24.47;41.49;101447.41;691900;28;20189;-51
2022/08/13 01:27:31;;;;;;;912.20;850.35;;;;;;;24.49;41.31;101452.66;688395;28;136399;-55
2022/08/13 01:27:53;;;;;;;895.05;833.75;;;;;;;24.49;41.48;101445.22;691722;28;44362;-55
2022/08/13 01:28:15;;;;;;;879.65;818.85;;;;;;;24.50;41.53;101446.88;691824;28;45410;-50
2022/08/13 01:28:39;;;;;;;904.33;842.80;;;;;;;24.51;41.24;101447.72;692666;28;22393;-54
2022/08/13 01:29:04;;;;;;;912.45;850.65;;;;;;;24.51;41.63;101445.78;691698;28;92239;-53
2022/08/13 01:29:25;;;;;;;918.90;856.88;;;;;;;24.50;41.32;101449.66;691533;28;139289;-57
2022/08/13 01:29:47;;;;;;;918.38;856.40;;;;;;;24.50;41.28;101443.28;695429;28;21509;-52
2022/08/13 01:30:15;;;;;;;892.00;830.83;;;;;;;24.49;41.68;101452.66;694797;28;46674;-52
2022/08/13 01:30:37;;;;;;;880.63;819.90;;;;;;;24.49;41.65;101447.16;691566;28;138072;-55
2022/08/13 01:31:04;;;;;;;920.10;858.08;;;;;;;24.48;41.42;101446.28;694662;28;46325;-54
2022/08/13 01:31:27;;;;;;;891.05;829.92;;;;;;;24.49;41.35;101447.16;688470;28;136317;-55
2022/08/13 01:31:49;;;;;;;912.30;850.50;;;;;;;24.48;41.45;101446.28;689697;28;70149;-53
2022/08/13 01:32:13;;;;;;;897.28;835.97;;;;;;;24.46;41.53;101446.53;692553;28;23484;-55
2022/08/13 01:32:37;;;;;;;885.38;824.42;;;;;;;24.46;41.68;101454.81;689216;28;114896;-55
2022/08/13 01:33:02;;;;;;;894.75;833.53;;;;;;;24.47;41.29;101450.97;690795;28;68387;-55
2022/08/13 01:33:24;;;;;;;887.75;826.65;;;;;;;24.49;41.14;101450.72;688721;28;136477;-56
2022/08/13 01:33:46;;;;;;;856.08;795.97;;;;;;;24.49;41.29;101445.22;692779;28;46277;-53
2022/08/13 01:34:09;;;;;;;863.47;803.13;;;;;;;24.50;41.17;101443.28;694572;28;45035;-55
2022/08/13 01:34:32;;;;;;;881.35;820.55;;;;;;;24.50;41.65;101437.75;694734;28;46496;-54
2022/08/13 01:34:53;;;;;;;909.40;847.72;;;;;;;24.52;41.65;101444.69;693658;28;69440;-52
2022/08/13 01:35:16;;;;;;;916.22;854.33;;;;;;;24.53;41.41;101443.63;694691;28;45251;-55
2022/08/13 01:35:38;;;;;;;883.10;822.22;;;;;;;24.53;41.42;101443.63;693135;28;70286;-55
2022/08/13 01:36:01;;;;;;;911.72;849.88;;;;;;;24.54;41.38;101447.22;695994;28;1045;-54
2022/08/13 01:36:24;;;;;;;904.35;842.75;;;;;;;24.53;41.30;101443.63;694362;28;47784;-55
2022/08/13 01:36:49;;;;;;;875.65;814.97;;;;;;;24.52;41.39;101446.63;695126;28;4551;-56
2022/08/13 01:37:11;;;;;;;878.88;818.03;;;;;;;24.52;41.19;101446.63;692637;28;80957;-54
2022/08/13 01:37:33;;;;;;;921.10;859.05;;;;;;;24.53;41.41;101434.47;693668;28;69404;-53
2022/08/13 01:37:57;;;;;;;899.00;837.55;;;;;;;24.51;41.29;101444.97;694562;28;46343;-53
2022/08/13 01:38:20;;;;;;;904.63;843.13;;;;;;;24.47;41.27;101442.69;693093;28;93020;-54
2022/08/13 01:38:42;;;;;;;922.03;860.00;;;;;;;24.47;41.10;101445.47;691919;28;45272;-55
2022/08/13 01:39:05;;;;;;;925.33;863.20;;;;;;;24.46;41.42;101440.19;691374;28;45226;-55
2022/08/13 01:39:28;;;;;;;927.60;865.30;;;;;;;24.45;41.31;101442.13;689983;28;92838;-54
2022/08/13 01:39:50;;;;;;;897.92;836.53;;;;;;;24.45;41.64;101444.88;690623;28;69443;-56
2022/08/13 01:40:12;;;;;;;865.30;804.88;;;;;;;24.45;41.74;101444.88;691589;28;45324;-54
2022/08/13 01:40:33;;;;;;;863.03;802.67;;;;;;;24.46;41.44;101442.94;693614;28;21553;-54
2022/08/13 01:40:55;;;;;;;883.78;822.78;;;;;;;24.47;41.35;101437.19;694111;28;44377;-53
2022/08/13 01:41:17;;;;;;;890.10;829.03;;;;;;;24.49;41.43;101447.16;692412;28;22381;-54
2022/08/13 01:41:38;;;;;;;918.33;856.35;;;;;;;24.48;41.42;101440.75;691382;28;46324;-58
2022/08/13 01:42:00;;;;;;;919.95;857.83;;;;;;;24.47;41.34;101439.94;690220;28;65617;-55
2022/08/13 01:42:24;;;;;;;888.85;827.72;;;;;;;24.46;41.33;101437.44;691830;28;46353;-55
2022/08/13 01:42:48;;;;;;;907.42;845.75;;;;;;;24.48;41.30;101443.53;690046;28;93190;-55
2022/08/13 01:43:10;;;;;;;884.60;823.70;;;;;;;24.49;41.29;101441.63;691693;28;90727;-55
2022/08/13 01:43:34;;;;;;;899.58;838.17;;;;;;;24.48;41.38;101443.53;694197;28;46325;-57
2022/08/13 01:44:00;;;;;;;913.17;851.38;;;;;;;24.48;41.41;101440.75;692150;28;93511;-51
2022/08/13 01:44:24;;;;;;;890.90;829.80;;;;;;;24.47;41.28;101439.94;691532;28;138319;-54
2022/08/13 01:44:45;;;;;;;918.53;856.50;;;;;;;24.49;41.06;101438.84;693717;28;69426;-52
2022/08/13 01:45:08;;;;;;;923.22;861.03;;;;;;;24.50;41.24;101446.03;694056;28;46423;-52
2022/08/13 01:45:30;;;;;;;888.70;827.60;;;;;;;24.48;41.53;101440.75;694523;28;46825;-50
2022/08/13 01:45:51;;;;;;;893.80;832.53;;;;;;;24.48;41.31;101440.75;694193;28;46387;-55
2022/08/13 01:46:14;;;;;;;923.70;861.45;;;;;;;24.50;41.54;101443.28;694812;28;44371;-59
2022/08/13 01:50:29;;;;;;;885.97;825.03;;;;;;;24.57;40.93;101436.53;683140;28;137550;-59
2022/08/13 01:50:51;;;;;;;924.50;862.30;;;;;;;24.58;41.34;101434.63;683686;28;115279;-58